Time;durP1;ratioP1;P1;durP2;ratioP2;P2;SDS_P1;SDS_P2;PMS_P1;PMS_P2;Temp;Humidity;BMP_temperature;BMP_pressure;BME280_temperature;BME280_humidity;BME280_pressure;Samples;Min_cycle;Max_cycle;Signal;HPM_P1;HPM_P2
2023/04/28 00:01:44;;;;;;;2.60;1.00;;;;;;;16.24;48.54;99437.91;104308;1267;60977;-67
2023/04/28 00:04:11;;;;;;;2.50;1.10;;;;;;;16.22;48.44;99438.61;104406;1257;62317;-67
2023/04/28 00:08:11;;;;;;;4.60;1.20;;;;;;;15.14;52.70;99440.63;101164;1292;601796;-67
2023/04/28 00:10:39;;;;;;;1.60;1.00;;;;;;;16.15;48.65;99442.31;103485;1269;63647;-66
2023/04/28 00:13:06;;;;;;;2.00;1.10;;;;;;;16.13;48.48;99442.04;103514;1266;60631;-67
2023/04/28 00:15:33;;;;;;;2.40;1.30;;;;;;;16.16;48.17;99445.77;103475;1266;72028;-67
2023/04/28 00:18:00;;;;;;;2.90;1.00;;;;;;;16.08;47.82;99445.39;103480;1282;70155;-67
2023/04/28 00:20:27;;;;;;;2.70;1.40;;;;;;;16.09;48.06;99446.59;104803;1266;75487;-67
2023/04/28 00:22:54;;;;;;;1.70;0.90;;;;;;;16.15;47.67;99452.16;106346;1265;149000;-67
2023/04/28 00:25:22;;;;;;;1.50;1.00;;;;;;;16.19;47.42;99455.63;104679;1258;60191;-67
2023/04/28 00:27:49;;;;;;;2.70;1.10;;;;;;;16.16;47.75;99455.80;104582;1260;74795;-67
2023/04/28 00:30:16;;;;;;;4.20;1.10;;;;;;;16.11;47.83;99456.81;104315;1260;69988;-67
2023/04/28 00:32:43;;;;;;;3.80;1.30;;;;;;;16.14;47.56;99458.77;104270;1256;71863;-67
2023/04/28 00:35:10;;;;;;;0.90;0.80;;;;;;;16.16;47.57;99460.42;104302;1255;60957;-67
2023/04/28 00:37:38;;;;;;;1.50;1.00;;;;;;;16.21;47.82;99465.40;104243;1256;61120;-67
2023/04/28 00:40:06;;;;;;;1.50;1.10;;;;;;;16.22;47.65;99472.05;104381;1254;75139;-67
2023/04/28 00:42:33;;;;;;;1.80;0.80;;;;;;;16.20;47.23;99470.06;104315;1266;70545;-66
2023/04/28 00:45:04;;;;;;;1.60;1.00;;;;;;;16.23;47.30;99479.59;104427;1256;72656;-67
2023/04/28 00:47:33;;;;;;;1.60;1.40;;;;;;;16.16;47.17;99485.18;104310;1261;60590;-67
2023/04/28 00:50:01;;;;;;;3.50;1.00;;;;;;;16.13;47.10;99492.77;104070;1259;60807;-67
2023/04/28 00:52:28;;;;;;;2.60;0.70;;;;;;;16.10;47.57;99492.11;104191;1262;73409;-67
2023/04/28 00:54:55;;;;;;;1.20;0.80;;;;;;;16.10;47.57;99489.46;104247;1254;69889;-67
2023/04/28 00:57:22;;;;;;;1.70;1.10;;;;;;;16.11;47.22;99493.82;104239;1253;73828;-68
2023/04/28 00:59:49;;;;;;;1.50;1.40;;;;;;;16.14;47.28;99495.01;104412;1258;60816;-68
2023/04/28 01:02:19;;;;;;;1.00;0.90;;;;;;;16.12;47.31;99494.47;104398;1257;60922;-69
2023/04/28 01:04:47;;;;;;;2.80;1.10;;;;;;;16.05;46.98;99493.89;104322;1272;72499;-67
2023/04/28 01:07:14;;;;;;;1.20;0.80;;;;;;;15.94;47.14;99493.16;104352;1261;69739;-67
2023/04/28 01:09:42;;;;;;;1.20;1.00;;;;;;;15.93;47.50;99495.04;104369;1266;72800;-67
2023/04/28 01:12:11;;;;;;;0.70;0.70;;;;;;;15.91;47.42;99496.05;104263;1255;61756;-66
2023/04/28 01:14:43;;;;;;;1.10;1.00;;;;;;;15.91;47.14;99498.83;104496;1254;62832;-66
2023/04/28 01:17:10;;;;;;;1.30;0.80;;;;;;;15.89;47.56;99499.35;104350;1262;72691;-66
2023/04/28 01:19:37;;;;;;;1.80;1.10;;;;;;;15.87;47.02;99499.65;104370;1270;69713;-66
2023/04/28 01:22:05;;;;;;;1.30;1.20;;;;;;;15.86;47.31;99500.63;104292;1272;72910;-66
2023/04/28 01:24:32;;;;;;;1.60;1.10;;;;;;;15.82;47.53;99497.51;104443;1266;61474;-66
2023/04/28 01:27:02;;;;;;;0.90;0.70;;;;;;;15.78;47.28;99496.05;104390;1256;60194;-66
2023/04/28 01:29:29;;;;;;;1.50;1.10;;;;;;;15.84;47.58;99496.18;104414;1259;72474;-68
2023/04/28 01:31:57;;;;;;;3.80;1.30;;;;;;;15.81;46.98;99497.81;104331;1275;70153;-66
2023/04/28 01:34:24;;;;;;;2.20;1.10;;;;;;;15.80;47.04;99503.34;104438;1253;73564;-66
2023/04/28 01:36:51;;;;;;;2.10;1.00;;;;;;;15.80;46.88;99504.52;104331;1272;60813;-67
2023/04/28 01:39:18;;;;;;;1.70;1.20;;;;;;;15.74;47.03;99506.71;104457;1259;59880;-67
2023/04/28 01:41:45;;;;;;;1.60;1.00;;;;;;;15.74;47.44;99509.16;104289;1261;73781;-66
2023/04/28 01:44:12;;;;;;;1.50;1.10;;;;;;;15.79;47.00;99508.52;104467;1269;69929;-64
2023/04/28 01:46:40;;;;;;;;;;;;;;;15.73;46.75;99509.06;104370;1254;74278;-64
2023/04/28 01:49:07;;;;;;;5.80;1.20;;;;;;;15.74;46.00;99505.64;104431;1254;60735;-66
2023/04/28 01:51:34;;;;;;;1.60;1.10;;;;;;;15.68;46.68;99506.40;104316;1267;60074;-67
2023/04/28 01:54:02;;;;;;;1.60;0.90;;;;;;;15.68;46.63;99500.77;104429;1259;72580;-68
2023/04/28 01:56:29;;;;;;;1.70;0.90;;;;;;;15.68;46.78;99504.08;104386;1270;69225;-68
2023/04/28 01:58:56;;;;;;;1.40;1.00;;;;;;;15.54;46.60;99502.86;104416;1253;73950;-67
2023/04/28 02:01:24;;;;;;;1.00;0.80;;;;;;;15.51;46.67;99502.53;104298;1256;63248;-67
2023/04/28 02:03:51;;;;;;;1.10;0.90;;;;;;;15.47;46.94;99502.06;104257;1272;60929;-67
2023/04/28 02:06:19;;;;;;;0.70;0.70;;;;;;;15.52;46.64;99503.21;104409;1269;74478;-67
2023/04/28 02:08:46;;;;;;;2.80;1.20;;;;;;;15.43;46.93;99504.86;104232;1269;72242;-67
2023/04/28 02:11:13;;;;;;;1.30;1.00;;;;;;;15.34;46.72;99504.70;104370;1255;73347;-66
2023/04/28 02:13:40;;;;;;;2.10;0.90;;;;;;;15.33;46.83;99502.13;104358;1257;64980;-66
2023/04/28 02:16:08;;;;;;;1.70;1.00;;;;;;;15.31;46.57;99502.79;104345;1253;61489;-66
2023/04/28 02:18:36;;;;;;;1.70;0.80;;;;;;;15.26;47.13;99505.41;104381;1275;73923;-66
2023/04/28 02:21:10;;;;;;;2.70;1.10;;;;;;;15.26;46.88;99509.27;104351;1258;70499;-66
2023/04/28 02:23:38;;;;;;;1.00;0.90;;;;;;;15.17;47.14;99510.89;104299;1275;73405;-66
2023/04/28 02:26:05;;;;;;;1.90;1.20;;;;;;;15.13;46.69;99509.22;104528;1257;61186;-67
2023/04/28 02:28:32;;;;;;;1.60;0.70;;;;;;;15.26;46.52;99508.39;104411;1264;60865;-65
2023/04/28 02:31:07;;;;;;;1.10;0.80;;;;;;;15.27;46.49;99505.54;104325;1258;73232;-68
2023/04/28 02:33:35;;;;;;;1.30;0.90;;;;;;;15.22;46.44;99509.40;104418;1259;69031;-66
2023/04/28 02:36:03;;;;;;;3.90;1.20;;;;;;;15.19;46.45;99512.70;104381;1272;72072;-66
2023/04/28 02:38:30;;;;;;;1.50;0.90;;;;;;;15.22;46.10;99514.67;104388;1259;62046;-65
2023/04/28 02:40:58;;;;;;;2.00;1.00;;;;;;;15.21;46.09;99513.30;104310;1259;60298;-66
2023/04/28 02:43:30;;;;;;;1.70;1.10;;;;;;;15.15;46.34;99516.48;104432;1265;73668;-65
2023/04/28 02:45:57;;;;;;;1.80;0.90;;;;;;;15.14;46.12;99516.90;104324;1259;69709;-65
2023/04/28 02:48:24;;;;;;;1.40;0.70;;;;;;;15.19;46.16;99520.65;105071;1253;75337;-66
2023/04/28 02:50:52;;;;;;;1.40;1.00;;;;;;;15.18;45.70;99522.84;108085;1253;63151;-67
2023/04/28 02:53:19;;;;;;;2.80;1.10;;;;;;;15.22;45.38;99528.44;105874;1256;60635;-66
2023/04/28 02:55:47;;;;;;;2.40;0.80;;;;;;;15.28;45.62;99532.29;104781;1253;73753;-66
2023/04/28 02:58:14;;;;;;;1.90;0.90;;;;;;;15.28;45.48;99535.64;104549;1269;72042;-66
2023/04/28 03:00:42;;;;;;;2.00;1.00;;;;;;;15.30;45.56;99538.51;104416;1252;73687;-66
2023/04/28 03:03:09;;;;;;;2.90;1.10;;;;;;;15.29;45.26;99543.52;104342;1259;62816;-66
2023/04/28 03:05:36;;;;;;;1.10;0.80;;;;;;;15.26;45.66;99545.50;104298;1261;59769;-67
2023/04/28 03:08:05;;;;;;;1.30;0.90;;;;;;;15.20;45.49;99549.02;104431;1259;73514;-67
2023/04/28 03:10:32;;;;;;;3.40;0.80;;;;;;;15.14;45.53;99550.30;104397;1257;70026;-67
2023/04/28 03:12:59;;;;;;;1.00;0.80;;;;;;;15.12;45.75;99554.48;104369;1254;75257;-68
2023/04/28 03:15:27;;;;;;;2.00;0.90;;;;;;;15.09;45.46;99553.77;104400;1254;60576;-67
2023/04/28 03:17:55;;;;;;;1.10;0.90;;;;;;;15.06;45.41;99560.52;104474;1254;60684;-68
2023/04/28 03:20:23;;;;;;;1.50;0.90;;;;;;;15.04;45.23;99559.27;104489;1260;73621;-65
2023/04/28 03:22:50;;;;;;;1.20;0.90;;;;;;;15.02;45.23;99566.42;104377;1260;68954;-69
2023/04/28 03:25:17;;;;;;;1.50;0.90;;;;;;;15.02;45.34;99575.03;104241;1270;75112;-65
2023/04/28 03:27:49;;;;;;;0.70;0.70;;;;;;;15.06;45.30;99579.39;104275;1253;63062;-67
2023/04/28 03:30:16;;;;;;;1.40;0.80;;;;;;;15.04;45.21;99580.59;104374;1254;60361;-66
2023/04/28 03:32:45;;;;;;;1.30;1.20;;;;;;;15.04;44.78;99585.52;104345;1259;73027;-66
2023/04/28 03:35:12;;;;;;;0.90;0.80;;;;;;;15.01;45.45;99585.92;104379;1257;69913;-66
2023/04/28 03:37:40;;;;;;;1.40;0.80;;;;;;;14.98;45.47;99591.34;104405;1258;73244;-66
2023/04/28 03:40:08;;;;;;;2.30;1.10;;;;;;;14.95;45.25;99587.52;104329;1253;60473;-66
2023/04/28 03:43:14;;;;;;;1.20;0.70;;;;;;;14.91;45.25;99590.21;104097;1260;61457;-65
2023/04/28 03:46:07;;;;;;;1.70;0.80;;;;;;;14.85;45.08;99588.66;103597;1269;74924;-66
2023/04/28 03:48:34;;;;;;;2.30;0.80;;;;;;;14.78;45.07;99587.98;104224;1275;70322;-66
2023/04/28 03:51:02;;;;;;;1.20;0.90;;;;;;;14.75;45.20;99589.42;104291;1273;74611;-66
2023/04/28 03:53:30;;;;;;;1.90;0.70;;;;;;;14.73;45.28;99587.27;104441;1254;61742;-66
2023/04/28 03:55:58;;;;;;;1.40;1.20;;;;;;;14.78;45.41;99595.41;104441;1259;60690;-65
2023/04/28 03:58:25;;;;;;;1.90;0.70;;;;;;;14.84;45.52;99593.84;104318;1254;73241;-65
2023/04/28 04:00:53;;;;;;;2.40;1.10;;;;;;;14.81;45.12;99597.54;104264;1260;68831;-64
2023/04/28 04:03:21;;;;;;;0.80;0.80;;;;;;;14.81;45.17;99600.89;104422;1259;75044;-65
2023/04/28 04:05:49;;;;;;;1.30;0.90;;;;;;;14.82;45.03;99602.21;104365;1257;61421;-62
2023/04/28 04:08:16;;;;;;;1.80;0.90;;;;;;;14.84;45.10;99605.33;104475;1267;60172;-62
2023/04/28 04:10:44;;;;;;;1.50;0.90;;;;;;;14.80;45.02;99605.88;104481;1253;74074;-62
2023/04/28 04:13:11;;;;;;;3.10;1.10;;;;;;;14.83;44.83;99604.67;104409;1258;69159;-62
2023/04/28 04:15:39;;;;;;;1.00;0.90;;;;;;;14.88;44.32;99607.88;104540;1258;73364;-63
2023/04/28 04:18:07;;;;;;;1.10;1.00;;;;;;;14.83;43.98;99605.38;104707;1257;61336;-65
2023/04/28 04:20:52;;;;;;;1.80;0.90;;;;;;;14.78;44.50;99604.57;104818;1258;60560;-66
2023/04/28 04:23:19;;;;;;;1.30;0.90;;;;;;;14.72;44.76;99604.24;104607;1268;74494;-68
2023/04/28 04:25:47;;;;;;;1.50;1.00;;;;;;;14.72;44.56;99609.37;104389;1256;70250;-68
2023/04/28 04:28:15;;;;;;;1.30;1.00;;;;;;;14.81;44.67;99611.27;104370;1256;73467;-68
2023/04/28 04:30:42;;;;;;;1.40;1.10;;;;;;;14.86;44.91;99610.48;104582;1257;60470;-70
2023/04/28 04:33:09;;;;;;;2.40;0.80;;;;;;;14.90;44.68;99613.89;104547;1256;60847;-68
2023/04/28 04:35:36;;;;;;;1.20;0.90;;;;;;;14.98;44.52;99612.24;104470;1257;75019;-67
2023/04/28 04:38:03;;;;;;;1.60;1.10;;;;;;;15.04;44.65;99604.76;104576;1258;69788;-67
2023/04/28 04:40:31;;;;;;;1.30;1.20;;;;;;;15.08;44.48;99610.15;104596;1252;73716;-66
2023/04/28 04:42:59;;;;;;;0.80;0.70;;;;;;;15.10;44.46;99609.34;104685;1260;61096;-65
2023/04/28 04:45:29;;;;;;;1.50;0.90;;;;;;;15.14;44.57;99610.85;104388;1263;60552;-66
2023/04/28 04:47:56;;;;;;;3.00;1.00;;;;;;;15.23;44.13;99613.10;104215;1256;75026;-66
2023/04/28 04:50:24;;;;;;;1.50;1.20;;;;;;;15.28;44.20;99614.04;104420;1253;72112;-65
2023/04/28 04:52:55;;;;;;;;;;;;;;;15.30;43.89;99607.23;104502;1258;74185;-66
2023/04/28 04:55:22;;;;;;;1.50;1.10;;;;;;;15.35;43.66;99615.39;104373;1252;61971;-66
2023/04/28 04:57:51;;;;;;;2.40;1.20;;;;;;;15.35;43.94;99616.98;104406;1256;60886;-68
2023/04/28 05:00:24;;;;;;;1.40;1.00;;;;;;;15.36;44.19;99614.08;104390;1259;75261;-66
2023/04/28 05:02:51;;;;;;;2.60;1.40;;;;;;;15.41;44.02;99619.43;104390;1273;70111;-66
2023/04/28 05:05:19;;;;;;;2.10;1.00;;;;;;;15.44;43.78;99619.54;104347;1259;72460;-67
2023/04/28 05:08:03;;;;;;;3.10;1.40;;;;;;;15.51;43.42;99621.96;104369;1268;61265;-66
2023/04/28 05:10:30;;;;;;;2.50;1.40;;;;;;;15.42;43.26;99627.67;104321;1257;60555;-66
2023/04/28 05:12:57;;;;;;;1.30;1.10;;;;;;;15.41;43.74;99625.41;104407;1260;73952;-65
2023/04/28 05:15:25;;;;;;;2.20;1.10;;;;;;;15.46;43.84;99623.14;104473;1256;69954;-64
2023/04/28 05:18:12;;;;;;;2.20;0.90;;;;;;;15.49;43.26;99620.16;104086;1265;74690;-65
2023/04/28 05:20:40;;;;;;;2.20;1.00;;;;;;;15.47;43.37;99622.92;104559;1259;63733;-68
2023/04/28 05:23:08;;;;;;;2.00;1.10;;;;;;;15.51;43.77;99621.27;104772;1254;60527;-69
2023/04/28 05:25:35;;;;;;;1.50;0.90;;;;;;;15.56;43.68;99619.17;104476;1259;74515;-69
2023/04/28 05:28:06;;;;;;;2.80;1.10;;;;;;;15.58;43.43;99624.53;104616;1258;69864;-68
2023/04/28 05:30:33;;;;;;;2.10;1.30;;;;;;;15.73;43.21;99630.09;104778;1254;73979;-69
2023/04/28 05:33:00;;;;;;;1.80;1.20;;;;;;;15.84;43.44;99632.63;104728;1254;60583;-73
2023/04/28 05:35:29;;;;;;;3.00;0.90;;;;;;;15.89;43.43;99637.05;104616;1275;60565;-69
2023/04/28 05:37:58;;;;;;;1.60;1.00;;;;;;;15.95;43.05;99634.88;104369;1274;76489;-68
2023/04/28 05:40:26;;;;;;;1.60;1.00;;;;;;;16.02;43.08;99632.88;104454;1263;69999;-70
2023/04/28 05:42:55;;;;;;;1.70;1.20;;;;;;;16.03;43.03;99633.88;104642;1259;72985;-69
2023/04/28 05:45:22;;;;;;;6.30;1.40;;;;;;;16.15;42.90;99631.62;104370;1257;61364;-68
2023/04/28 05:47:49;;;;;;;1.70;1.00;;;;;;;16.27;43.20;99635.83;104387;1260;61639;-67
2023/04/28 05:50:17;;;;;;;2.00;0.90;;;;;;;16.38;42.61;99636.15;104355;1258;75681;-67
2023/04/28 05:52:44;;;;;;;2.70;0.90;;;;;;;16.45;42.74;99633.89;104567;1257;70562;-70
2023/04/28 05:55:11;;;;;;;3.00;0.80;;;;;;;16.49;42.53;99632.90;104495;1259;73893;-67
2023/04/28 05:57:38;;;;;;;2.20;1.00;;;;;;;16.54;42.82;99633.65;104503;1257;61956;-69
2023/04/28 06:00:20;;;;;;;1.40;1.00;;;;;;;16.66;42.23;99631.08;104533;1270;61932;-69
2023/04/28 06:02:48;;;;;;;1.40;0.90;;;;;;;16.83;41.71;99632.18;104657;1257;74532;-68
2023/04/28 06:05:16;;;;;;;1.80;1.00;;;;;;;16.93;41.96;99629.77;104476;1257;72251;-70
2023/04/28 06:07:45;;;;;;;3.30;1.10;;;;;;;17.01;42.01;99626.27;104619;1253;72932;-71
2023/04/28 06:10:15;;;;;;;1.60;1.10;;;;;;;17.12;41.62;99625.81;104596;1254;60597;-74
2023/04/28 06:12:42;;;;;;;1.00;0.90;;;;;;;17.19;41.76;99618.91;104922;1257;60565;-70
2023/04/28 06:15:10;;;;;;;1.50;1.00;;;;;;;17.25;41.56;99626.31;104596;1267;76063;-71
2023/04/28 06:17:37;;;;;;;;;;;;;;;17.31;41.27;99627.08;104390;1258;71982;-70
2023/04/28 06:20:06;;;;;;;1.10;1.00;;;;;;;17.44;41.16;99626.78;104648;1257;73148;-71
2023/04/28 06:22:33;;;;;;;2.00;1.10;;;;;;;17.59;40.94;99626.00;104758;1253;60626;-70
2023/04/28 06:25:00;;;;;;;2.80;1.10;;;;;;;17.65;40.23;99627.89;104831;1262;61453;-71
2023/04/28 06:27:33;;;;;;;1.10;0.80;;;;;;;17.76;40.76;99630.65;104423;1264;73593;-71
2023/04/28 06:30:00;;;;;;;1.30;0.90;;;;;;;17.90;40.21;99633.56;104472;1258;69605;-72
2023/04/28 06:32:27;;;;;;;1.60;0.80;;;;;;;17.98;39.85;99630.30;104679;1254;72463;-71
2023/04/28 06:34:55;;;;;;;1.60;0.60;;;;;;;18.07;40.11;99627.50;105071;1253;61900;-71
2023/04/28 06:37:24;;;;;;;1.90;0.90;;;;;;;18.19;39.96;99630.16;104555;1263;60882;-71
2023/04/28 06:39:52;;;;;;;2.50;0.70;;;;;;;18.31;39.85;99632.28;104682;1258;73859;-71
2023/04/28 06:42:19;;;;;;;1.00;0.60;;;;;;;18.43;39.74;99632.45;104434;1261;69100;-71
2023/04/28 06:44:58;;;;;;;3.00;0.80;;;;;;;18.52;39.41;99639.60;104440;1257;73059;-73
2023/04/28 06:47:26;;;;;;;3.80;0.90;;;;;;;18.58;39.31;99638.77;104452;1253;63047;-71
2023/04/28 06:49:54;;;;;;;1.00;0.80;;;;;;;18.63;39.44;99636.77;104659;1257;60637;-73
2023/04/28 06:52:21;;;;;;;2.90;1.00;;;;;;;18.72;39.11;99641.25;104902;1259;74383;-71
2023/04/28 06:54:58;;;;;;;1.80;1.20;;;;;;;18.79;38.64;99638.40;104618;1259;69650;-72
2023/04/28 06:57:25;;;;;;;0.90;0.80;;;;;;;18.83;38.31;99634.07;104558;1267;73487;-69
2023/04/28 06:59:53;;;;;;;2.20;1.10;;;;;;;18.78;37.56;99639.56;105234;1256;61907;-66
2023/04/28 07:02:20;;;;;;;3.50;0.80;;;;;;;18.85;37.95;99640.66;104929;1256;65037;-68
2023/04/28 07:04:48;;;;;;;1.90;0.80;;;;;;;18.92;38.14;99645.42;104440;1258;73764;-71
2023/04/28 07:07:15;;;;;;;2.90;0.90;;;;;;;19.03;37.29;99646.72;104511;1256;70757;-73
2023/04/28 07:09:42;;;;;;;1.30;0.80;;;;;;;19.09;36.48;99638.27;104655;1257;74231;-71
2023/04/28 07:12:10;;;;;;;4.00;1.00;;;;;;;19.20;36.78;99638.30;104320;1258;60859;-77
2023/04/28 07:14:38;;;;;;;1.10;0.90;;;;;;;19.30;36.45;99640.85;104431;1254;60620;-70
2023/04/28 07:17:05;;;;;;;3.10;0.90;;;;;;;19.37;36.10;99634.94;104469;1257;75614;-70
2023/04/28 07:19:32;;;;;;;1.00;0.90;;;;;;;19.43;35.42;99644.61;104486;1260;69990;-74
2023/04/28 07:21:59;;;;;;;5.80;0.90;;;;;;;19.53;34.72;99645.80;104755;1257;72217;-72
2023/04/28 07:24:27;;;;;;;2.00;0.90;;;;;;;19.60;34.64;99649.14;104710;1259;60466;-69
2023/04/28 07:26:54;;;;;;;1.50;1.10;;;;;;;19.57;34.51;99642.60;104735;1254;60931;-70
2023/04/28 07:29:22;;;;;;;1.00;0.60;;;;;;;19.59;34.57;99647.58;104623;1259;74891;-69
2023/04/28 07:31:49;;;;;;;3.10;1.20;;;;;;;19.68;34.49;99650.86;104444;1259;71463;-69
2023/04/28 07:34:16;;;;;;;1.10;0.70;;;;;;;19.70;33.77;99647.80;104441;1269;72479;-68
2023/04/28 07:36:44;;;;;;;0.60;0.60;;;;;;;19.78;33.83;99653.39;104530;1259;62000;-68
2023/04/28 07:39:11;;;;;;;1.30;0.90;;;;;;;19.85;34.05;99653.55;104484;1256;60802;-72
2023/04/28 07:41:39;;;;;;;2.70;0.90;;;;;;;19.98;34.36;99654.63;104831;1258;74309;-68
2023/04/28 07:44:07;;;;;;;2.20;0.90;;;;;;;20.01;33.35;99654.73;104650;1257;69594;-70
2023/04/28 07:46:34;;;;;;;1.50;1.10;;;;;;;20.10;33.38;99661.33;104834;1253;75286;-70
2023/04/28 07:49:01;;;;;;;2.20;0.90;;;;;;;20.10;33.19;99660.23;104550;1268;60564;-70
2023/04/28 07:51:30;;;;;;;0.80;0.60;;;;;;;20.12;32.93;99659.39;104443;1265;61046;-71
2023/04/28 07:53:57;;;;;;;1.20;0.70;;;;;;;20.03;33.18;99657.96;104790;1257;74759;-70
2023/04/28 07:56:25;;;;;;;0.90;0.80;;;;;;;19.92;32.43;99652.29;105036;1257;69564;-70
2023/04/28 07:58:52;;;;;;;0.80;0.70;;;;;;;20.04;32.89;99664.80;104887;1256;72874;-70
2023/04/28 08:01:19;;;;;;;3.80;0.50;;;;;;;20.10;32.98;99663.23;104588;1257;60919;-69
2023/04/28 08:03:46;;;;;;;1.10;0.60;;;;;;;20.20;33.41;99663.36;104815;1255;61221;-69
2023/04/28 08:06:14;;;;;;;1.30;0.50;;;;;;;20.16;33.37;99665.20;104732;1253;74962;-68
2023/04/28 08:08:41;;;;;;;1.60;0.60;;;;;;;20.15;33.29;99665.34;104977;1267;72138;-68
2023/04/28 08:11:08;;;;;;;4.20;0.80;;;;;;;20.20;32.93;99665.27;104614;1260;72509;-68
2023/04/28 08:13:35;;;;;;;3.80;0.60;;;;;;;20.24;32.60;99658.57;104593;1263;60562;-69
2023/04/28 08:16:03;;;;;;;0.70;0.60;;;;;;;20.36;32.63;99659.20;104647;1270;60788;-69
2023/04/28 08:18:30;;;;;;;0.80;0.80;;;;;;;20.45;32.40;99662.48;104620;1257;76311;-68
2023/04/28 08:20:57;;;;;;;2.10;0.80;;;;;;;20.61;32.16;99659.19;104522;1259;69672;-68
2023/04/28 08:23:27;;;;;;;1.60;0.70;;;;;;;20.70;31.88;99662.80;104868;1258;72506;-70
2023/04/28 08:25:54;;;;;;;1.30;0.60;;;;;;;20.75;30.85;99657.77;104471;1275;61924;-70
2023/04/28 08:28:21;;;;;;;2.70;0.50;;;;;;;20.88;31.17;99653.93;104930;1254;60593;-69
2023/04/28 08:30:48;;;;;;;1.90;0.80;;;;;;;20.95;31.17;99660.08;104739;1259;74866;-68
2023/04/28 08:33:15;;;;;;;0.80;0.70;;;;;;;20.95;30.96;99660.77;104723;1256;69911;-67
2023/04/28 08:35:43;;;;;;;1.10;0.60;;;;;;;21.05;31.12;99664.27;104471;1267;74493;-68
2023/04/28 08:38:12;;;;;;;1.50;0.70;;;;;;;21.17;31.37;99659.42;104601;1263;60828;-69
2023/04/28 08:40:41;;;;;;;1.90;0.60;;;;;;;21.34;30.75;99660.47;104676;1261;60898;-68
2023/04/28 08:43:13;;;;;;;0.90;0.70;;;;;;;21.32;30.25;99652.29;104662;1254;74231;-68
2023/04/28 08:45:41;;;;;;;1.40;0.80;;;;;;;21.36;30.53;99658.65;104642;1253;71329;-69
2023/04/28 08:48:19;;;;;;;2.90;0.90;;;;;;;21.37;30.52;99652.71;104500;1255;74410;-69
2023/04/28 08:50:53;;;;;;;2.10;0.50;;;;;;;21.41;30.56;99652.59;104412;1257;60501;-69
2023/04/28 08:53:25;;;;;;;0.60;0.60;;;;;;;21.50;29.91;99655.34;104530;1266;61158;-69
2023/04/28 08:55:55;;;;;;;0.80;0.70;;;;;;;21.61;29.98;99657.23;104572;1255;73208;-69
2023/04/28 08:58:23;;;;;;;0.70;0.70;;;;;;;21.64;30.24;99654.46;104643;1260;70940;-70
2023/04/28 09:00:52;;;;;;;2.40;0.80;;;;;;;21.78;30.06;99657.94;104543;1257;73533;-69
2023/04/28 09:03:20;;;;;;;4.20;0.60;;;;;;;21.90;29.43;99653.78;104888;1260;60724;-68
2023/04/28 09:05:47;;;;;;;;;;;;;;;21.98;29.44;99655.05;104866;1263;62924;-69
2023/04/28 09:08:15;;;;;;;1.60;0.70;;;;;;;22.09;29.49;99648.35;104726;1257;74789;-69
2023/04/28 09:10:42;;;;;;;2.10;0.90;;;;;;;21.99;29.55;99649.64;104477;1266;71652;-70
2023/04/28 09:13:09;;;;;;;1.20;0.60;;;;;;;22.02;29.74;99655.70;104409;1258;72319;-70
2023/04/28 09:15:40;;;;;;;1.60;0.80;;;;;;;22.04;28.84;99659.65;104813;1273;63044;-71
2023/04/28 09:18:07;;;;;;;1.40;0.70;;;;;;;22.08;29.17;99666.78;104761;1256;62799;-74
2023/04/28 09:20:35;;;;;;;0.90;0.60;;;;;;;22.06;28.67;99662.55;104549;1264;76489;-68
2023/04/28 09:23:16;;;;;;;1.00;0.60;;;;;;;21.99;29.08;99656.52;105019;1257;69275;-69
2023/04/28 09:25:59;;;;;;;0.50;0.40;;;;;;;21.98;28.94;99656.06;104979;1254;72049;-69
2023/04/28 09:28:27;;;;;;;0.60;0.60;;;;;;;22.06;29.19;99654.64;104687;1259;62796;-69
2023/04/28 09:30:54;;;;;;;1.70;0.70;;;;;;;22.02;29.26;99644.17;104458;1261;62887;-69
2023/04/28 09:33:21;;;;;;;3.60;0.90;;;;;;;21.91;28.80;99638.52;104707;1265;75851;-70
2023/04/28 09:35:48;;;;;;;1.10;0.70;;;;;;;21.81;29.25;99648.30;104613;1254;72115;-70
2023/04/28 09:38:16;;;;;;;3.60;1.00;;;;;;;21.85;29.04;99646.40;104456;1254;72647;-69
2023/04/28 09:40:53;;;;;;;1.50;0.80;;;;;;;21.89;28.51;99645.71;104485;1256;61014;-69
2023/04/28 09:43:31;;;;;;;4.60;0.90;;;;;;;22.01;28.60;99646.39;104825;1259;62894;-67
2023/04/28 09:46:03;;;;;;;2.90;0.50;;;;;;;22.08;28.07;99642.52;104360;1253;73084;-68
2023/04/28 09:48:35;;;;;;;0.60;0.60;;;;;;;22.07;28.18;99638.83;104409;1269;69858;-69
2023/04/28 09:51:06;;;;;;;1.80;0.70;;;;;;;22.14;28.10;99639.34;104482;1267;74409;-69
2023/04/28 09:53:34;;;;;;;1.70;0.80;;;;;;;22.21;28.50;99633.88;104738;1254;60617;-67
2023/04/28 09:56:02;;;;;;;3.00;0.60;;;;;;;22.24;28.02;99638.77;104697;1266;62648;-68
2023/04/28 09:58:29;;;;;;;;;;;;;;;22.30;28.55;99636.94;104507;1257;73663;-67
2023/04/28 10:00:57;;;;;;;0.80;0.60;;;;;;;22.35;28.08;99641.91;104640;1260;69250;-67
2023/04/28 10:03:26;;;;;;;1.00;0.50;;;;;;;22.25;28.12;99637.58;104627;1254;72869;-69
2023/04/28 10:05:57;;;;;;;3.00;0.70;;;;;;;22.18;28.18;99641.28;104639;1268;62216;-66
2023/04/28 10:08:26;;;;;;;2.00;0.60;;;;;;;22.09;27.90;99629.75;104503;1255;60835;-67
2023/04/28 10:10:53;;;;;;;3.70;0.60;;;;;;;22.04;28.03;99636.94;104501;1257;74734;-68
2023/04/28 10:13:21;;;;;;;2.30;0.70;;;;;;;22.11;27.93;99640.80;104700;1253;70682;-68
2023/04/28 10:15:49;;;;;;;;;;;;;;;22.14;27.72;99636.83;104469;1256;73247;-67
2023/04/28 10:18:16;;;;;;;;;;;;;;;22.25;27.68;99637.02;104772;1254;61960;-67
2023/04/28 10:20:44;;;;;;;3.00;0.80;;;;;;;22.37;28.10;99640.38;104655;1257;61003;-68
2023/04/28 10:23:37;;;;;;;1.20;0.70;;;;;;;22.41;27.39;99644.56;104772;1258;73893;-67
2023/04/28 10:26:09;;;;;;;0.60;0.40;;;;;;;22.42;27.10;99638.72;107602;1251;69813;-68
2023/04/28 10:28:36;;;;;;;1.10;0.60;;;;;;;22.45;27.58;99638.61;106843;1254;73799;-67
2023/04/28 10:31:33;;;;;;;0.50;0.50;;;;;;;22.41;28.00;99639.02;104987;1270;60564;-68
2023/04/28 10:34:20;;;;;;;2.10;0.70;;;;;;;22.45;28.22;99646.52;104930;1257;60796;-67
2023/04/28 10:36:53;;;;;;;0.90;0.60;;;;;;;22.59;28.04;99645.88;104728;1254;74306;-70
2023/04/28 10:39:20;;;;;;;1.50;0.70;;;;;;;22.73;27.23;99639.79;104847;1254;70799;-68
2023/04/28 10:41:48;;;;;;;1.00;0.60;;;;;;;22.82;27.34;99636.63;104456;1254;74426;-70
2023/04/28 10:44:27;;;;;;;1.40;0.60;;;;;;;22.96;27.13;99635.84;104754;1262;60789;-70
2023/04/28 10:47:02;;;;;;;1.40;0.80;;;;;;;23.12;27.03;99636.30;104447;1257;60729;-70
2023/04/28 10:49:57;;;;;;;0.90;0.50;;;;;;;23.11;27.21;99634.46;104480;1254;74500;-71
2023/04/28 10:52:40;;;;;;;1.10;0.70;;;;;;;23.04;26.18;99628.27;104562;1254;70799;-71
2023/04/28 10:55:35;;;;;;;1.10;0.50;;;;;;;23.20;27.31;99635.23;104421;1254;72780;-72
2023/04/28 10:58:16;;;;;;;2.50;0.70;;;;;;;23.40;27.23;99631.52;104543;1258;60897;-72
2023/04/28 11:00:46;;;;;;;3.00;1.00;;;;;;;23.28;27.24;99633.84;105080;1257;60540;-71
2023/04/28 11:03:49;;;;;;;2.40;0.70;;;;;;;23.15;26.62;99631.17;108226;1252;73769;-69
2023/04/28 11:06:34;;;;;;;0.80;0.60;;;;;;;23.25;26.71;99633.63;105033;1261;69847;-69
2023/04/28 11:09:14;;;;;;;1.10;0.50;;;;;;;23.43;26.92;99630.70;105079;1254;72268;-72
2023/04/28 11:11:54;;;;;;;2.60;0.80;;;;;;;23.58;26.85;99631.55;104919;1254;60550;-72
2023/04/28 11:14:22;;;;;;;4.60;0.50;;;;;;;23.77;26.79;99628.66;105116;1254;60879;-71
2023/04/28 11:16:55;;;;;;;2.20;0.50;;;;;;;23.89;26.68;99631.79;104836;1254;73350;-71
2023/04/28 11:19:29;;;;;;;0.90;0.60;;;;;;;23.83;26.30;99622.84;104632;1258;70088;-69
2023/04/28 11:21:58;;;;;;;1.40;0.60;;;;;;;23.95;26.30;99618.33;104350;1257;72495;-71
2023/04/28 11:24:26;;;;;;;1.90;0.70;;;;;;;24.00;25.98;99620.67;105124;1258;62914;-71
2023/04/28 11:26:53;;;;;;;;;;;;;;;24.13;25.95;99620.59;108300;1254;61456;-71
2023/04/28 11:29:32;;;;;;;0.80;0.70;;;;;;;24.19;25.67;99622.67;106466;1254;74129;-70
2023/04/28 11:31:59;;;;;;;1.30;0.70;;;;;;;24.31;25.79;99616.36;104986;1254;71755;-72
2023/04/28 11:34:27;;;;;;;0.80;0.50;;;;;;;24.34;25.96;99612.41;104842;1251;73435;-68
2023/04/28 11:36:54;;;;;;;1.10;0.40;;;;;;;24.35;26.17;99613.27;105016;1257;61113;-68
2023/04/28 11:39:29;;;;;;;0.80;0.50;;;;;;;24.23;26.08;99608.12;105290;1254;61094;-68